Archival Weather

Chicago O'Hare International

Chicago, Illinois (KORD)

Report from: Thursday, April 13, 2023 7:51 PM CDT
Current time: Sunday, February 25, 2024 4:11 PM CST

Current weather – Weather history – Daily summaries
Weather forecast

Temperature24.4°C (75.9°F)
Dew point1.7°C (35.1°F)
Winds 4 kts (2.1 m/s, 4.6 mph) South (180°)
Visibility10 mi. (16.1 km)
Clouds Scattered clouds 25,000 ft. (7,620 m)
Ceiling: Broken clouds 30,000 ft. (9,144 m)
Altimeter29.77 in.Hg (1008 mB)
Relative humidity23 %
Density altitude1,383 ft. (422 m)
Sea-level pressure100.8 kPa (1008 mB, 29.76 in.Hg)
Remarks Automated weather observing station with precipitation discriminator
Flight conditions Visual Meteorological Conditions
Raw dataKORD 140051Z 18004KT 10SM SCT250 BKN300 24/02 A2977 RMK AO2 SLP077 T02440017
An error has occurred. This application may no longer respond until reloaded. Reload 🗙